sensor_id;sensor_type;location;lat;lon;timestamp;pressure;altitude;pressure_sealevel;temperature;humidity
498;BME280;39559;48.630;9.162;2023-03-23T00:01:50;96920.63;;;8.04;100.00
498;BME280;39559;48.630;9.162;2023-03-23T00:04:16;96918.25;;;7.99;100.00
498;BME280;39559;48.630;9.162;2023-03-23T00:06:42;96911.81;;;7.87;100.00
498;BME280;39559;48.630;9.162;2023-03-23T00:09:12;96912.69;;;7.88;100.00
498;BME280;39559;48.630;9.162;2023-03-23T00:11:41;96920.06;;;8.18;100.00
498;BME280;39559;48.630;9.162;2023-03-23T00:14:07;96921.44;;;7.84;100.00
498;BME280;39559;48.630;9.162;2023-03-23T00:18:30;96913.50;;;7.46;100.00
498;BME280;39559;48.630;9.162;2023-03-23T00:20:56;96920.03;;;7.77;100.00
498;BME280;39559;48.630;9.162;2023-03-23T00:23:24;96911.25;;;7.81;100.00
498;BME280;39559;48.630;9.162;2023-03-23T00:25:53;96911.81;;;7.87;100.00
498;BME280;39559;48.630;9.162;2023-03-23T00:28:22;96905.03;;;7.85;100.00
498;BME280;39559;48.630;9.162;2023-03-23T00:31:03;96911.44;;;7.76;100.00
498;BME280;39559;48.630;9.162;2023-03-23T00:33:34;96910.03;;;7.67;100.00
498;BME280;39559;48.630;9.162;2023-03-23T00:36:08;96912.44;;;7.52;100.00
498;BME280;39559;48.630;9.162;2023-03-23T00:38:35;96906.53;;;7.48;100.00
498;BME280;39559;48.630;9.162;2023-03-23T00:42:31;96897.66;;;7.55;100.00
498;BME280;39559;48.630;9.162;2023-03-23T00:45:03;96889.38;;;7.67;100.00
498;BME280;39559;48.630;9.162;2023-03-23T00:47:36;96897.94;;;7.90;100.00
498;BME280;39559;48.630;9.162;2023-03-23T00:50:04;96884.81;;;7.95;100.00
498;BME280;39559;48.630;9.162;2023-03-23T00:52:30;96885.69;;;7.95;100.00
498;BME280;39559;48.630;9.162;2023-03-23T00:54:56;96871.56;;;7.82;100.00
498;BME280;39559;48.630;9.162;2023-03-23T00:57:21;96869.41;;;7.93;100.00
498;BME280;39559;48.630;9.162;2023-03-23T00:59:52;96873.31;;;8.02;100.00
498;BME280;39559;48.630;9.162;2023-03-23T01:02:18;96872.28;;;7.85;100.00
498;BME280;39559;48.630;9.162;2023-03-23T01:06:27;96879.56;;;7.76;100.00
498;BME280;39559;48.630;9.162;2023-03-23T01:08:53;96864.22;;;7.93;100.00
498;BME280;39559;48.630;9.162;2023-03-23T01:11:19;96872.16;;;7.88;100.00
498;BME280;39559;48.630;9.162;2023-03-23T01:13:45;96863.56;;;7.88;100.00
498;BME280;39559;48.630;9.162;2023-03-23T01:16:11;96856.66;;;7.88;100.00
498;BME280;39559;48.630;9.162;2023-03-23T01:18:37;96864.84;;;7.98;100.00
498;BME280;39559;48.630;9.162;2023-03-23T01:21:08;96864.34;;;7.90;100.00
498;BME280;39559;48.630;9.162;2023-03-23T01:23:35;96856.59;;;7.90;100.00
498;BME280;39559;48.630;9.162;2023-03-23T01:26:09;96852.25;;;7.91;100.00
498;BME280;39559;48.630;9.162;2023-03-23T01:30:24;96846.41;;;7.85;100.00
498;BME280;39559;48.630;9.162;2023-03-23T01:32:51;96842.22;;;8.03;100.00
498;BME280;39559;48.630;9.162;2023-03-23T01:35:17;96841.13;;;8.09;100.00
498;BME280;39559;48.630;9.162;2023-03-23T01:37:43;96831.75;;;8.06;100.00
498;BME280;39559;48.630;9.162;2023-03-23T01:40:09;96839.13;;;8.16;100.00
498;BME280;39559;48.630;9.162;2023-03-23T01:42:37;96824.47;;;7.96;100.00
498;BME280;39559;48.630;9.162;2023-03-23T01:45:25;96829.81;;;7.91;100.00
498;BME280;39559;48.630;9.162;2023-03-23T01:47:56;96819.41;;;7.93;100.00
498;BME280;39559;48.630;9.162;2023-03-23T01:50:25;96816.75;;;7.94;100.00
498;BME280;39559;48.630;9.162;2023-03-23T01:54:23;96819.88;;;8.02;100.00
498;BME280;39559;48.630;9.162;2023-03-23T01:57:01;96819.47;;;8.12;100.00
498;BME280;39559;48.630;9.162;2023-03-23T01:59:28;96817.34;;;8.01;100.00
498;BME280;39559;48.630;9.162;2023-03-23T02:01:55;96810.44;;;8.01;100.00
498;BME280;39559;48.630;9.162;2023-03-23T02:04:23;96808.59;;;8.03;100.00
498;BME280;39559;48.630;9.162;2023-03-23T02:06:53;96809.06;;;7.93;100.00
498;BME280;39559;48.630;9.162;2023-03-23T02:09:21;96805.25;;;8.01;100.00
498;BME280;39559;48.630;9.162;2023-03-23T02:11:48;96804.34;;;7.82;100.00
498;BME280;39559;48.630;9.162;2023-03-23T02:14:15;96797.53;;;7.81;100.00
498;BME280;39559;48.630;9.162;2023-03-23T02:29:35;96814.63;;;7.83;100.00
498;BME280;39559;48.630;9.162;2023-03-23T02:32:20;96806.41;;;7.94;100.00
498;BME280;39559;48.630;9.162;2023-03-23T02:34:53;96805.94;;;7.86;100.00
498;BME280;39559;48.630;9.162;2023-03-23T02:37:30;96801.34;;;7.52;100.00
498;BME280;39559;48.630;9.162;2023-03-23T02:42:21;96785.38;;;7.62;100.00
498;BME280;39559;48.630;9.162;2023-03-23T02:44:50;96782.34;;;7.73;100.00
498;BME280;39559;48.630;9.162;2023-03-23T02:47:21;96772.06;;;7.72;100.00
498;BME280;39559;48.630;9.162;2023-03-23T02:49:52;96768.38;;;7.77;100.00
498;BME280;39559;48.630;9.162;2023-03-23T02:52:24;96762.09;;;7.83;100.00
498;BME280;39559;48.630;9.162;2023-03-23T02:54:51;96762.88;;;7.85;100.00
498;BME280;39559;48.630;9.162;2023-03-23T02:57:19;96757.22;;;9.79;100.00
498;BME280;39559;48.630;9.162;2023-03-23T02:59:46;96752.28;;;10.08;100.00
498;BME280;39559;48.630;9.162;2023-03-23T03:02:38;96758.25;;;10.26;96.78
498;BME280;39559;48.630;9.162;2023-03-23T03:06:44;96756.47;;;10.76;89.64
498;BME280;39559;48.630;9.162;2023-03-23T03:09:46;96754.53;;;11.56;79.29
498;BME280;39559;48.630;9.162;2023-03-23T03:17:45;96748.91;;;11.78;76.30
498;BME280;39559;48.630;9.162;2023-03-23T03:20:14;96744.44;;;11.66;76.88
498;BME280;39559;48.630;9.162;2023-03-23T03:22:41;96738.50;;;11.78;75.30
498;BME280;39559;48.630;9.162;2023-03-23T03:25:10;96730.88;;;11.89;75.08
498;BME280;39559;48.630;9.162;2023-03-23T03:30:14;96733.75;;;12.15;72.01
498;BME280;39559;48.630;9.162;2023-03-23T03:32:45;96724.03;;;11.88;78.06
498;BME280;39559;48.630;9.162;2023-03-23T03:35:14;96733.13;;;11.81;75.02
498;BME280;39559;48.630;9.162;2023-03-23T03:37:41;96733.69;;;11.72;75.87
498;BME280;39559;48.630;9.162;2023-03-23T03:40:10;96737.84;;;11.75;76.43
498;BME280;39559;48.630;9.162;2023-03-23T03:42:42;96740.53;;;11.73;76.47
498;BME280;39559;48.630;9.162;2023-03-23T03:45:09;96729.59;;;11.68;77.74
498;BME280;39559;48.630;9.162;2023-03-23T03:47:36;96738.50;;;11.78;76.48
498;BME280;39559;48.630;9.162;2023-03-23T03:50:01;96742.19;;;11.60;78.97
498;BME280;39559;48.630;9.162;2023-03-23T03:54:12;96733.66;;;11.58;77.90
498;BME280;39559;48.630;9.162;2023-03-23T03:56:38;96731.81;;;11.60;77.95
498;BME280;39559;48.630;9.162;2023-03-23T03:59:09;96728.28;;;11.61;79.13
498;BME280;39559;48.630;9.162;2023-03-23T04:01:37;96728.81;;;11.96;75.02
498;BME280;39559;48.630;9.162;2023-03-23T04:04:03;96728.72;;;11.98;75.17
498;BME280;39559;48.630;9.162;2023-03-23T04:06:31;96726.50;;;11.92;74.14
498;BME280;39559;48.630;9.162;2023-03-23T04:08:58;96725.28;;;11.97;73.93
498;BME280;39559;48.630;9.162;2023-03-23T04:11:26;96716.81;;;12.08;73.70
498;BME280;39559;48.630;9.162;2023-03-23T04:13:52;96723.59;;;12.10;72.61
498;BME280;39559;48.630;9.162;2023-03-23T04:18:10;96717.19;;;12.16;72.46
498;BME280;39559;48.630;9.162;2023-03-23T04:20:37;96715.78;;;12.25;71.56
498;BME280;39559;48.630;9.162;2023-03-23T04:23:03;96726.94;;;12.13;73.51
498;BME280;39559;48.630;9.162;2023-03-23T04:25:28;96726.38;;;12.07;73.48
498;BME280;39559;48.630;9.162;2023-03-23T04:27:58;96728.88;;;12.23;72.53
498;BME280;39559;48.630;9.162;2023-03-23T04:30:27;96731.31;;;12.12;74.45
498;BME280;39559;48.630;9.162;2023-03-23T04:32:54;96727.03;;;12.25;74.09
498;BME280;39559;48.630;9.162;2023-03-23T04:35:23;96728.53;;;12.15;73.49
498;BME280;39559;48.630;9.162;2023-03-23T04:37:52;96733.44;;;12.20;74.56
498;BME280;39559;48.630;9.162;2023-03-23T04:42:08;96743.59;;;12.10;75.26
498;BME280;39559;48.630;9.162;2023-03-23T04:44:34;96741.34;;;12.04;76.82
498;BME280;39559;48.630;9.162;2023-03-23T04:47:01;96730.69;;;11.64;83.92
498;BME280;39559;48.630;9.162;2023-03-23T04:49:27;96735.06;;;11.33;88.69
498;BME280;39559;48.630;9.162;2023-03-23T04:51:55;96728.06;;;11.49;88.16
498;BME280;39559;48.630;9.162;2023-03-23T04:54:22;96737.25;;;10.79;96.48
498;BME280;39559;48.630;9.162;2023-03-23T04:56:47;96729.22;;;10.83;96.21
498;BME280;39559;48.630;9.162;2023-03-23T04:59:13;96732.34;;;10.58;100.00
498;BME280;39559;48.630;9.162;2023-03-23T05:01:40;96732.09;;;10.47;99.61
498;BME280;39559;48.630;9.162;2023-03-23T05:06:17;96730.59;;;10.43;97.28
498;BME280;39559;48.630;9.162;2023-03-23T05:08:43;96736.19;;;10.02;100.00
498;BME280;39559;48.630;9.162;2023-03-23T05:11:09;96740.16;;;9.91;100.00
498;BME280;39559;48.630;9.162;2023-03-23T05:13:34;96736.44;;;9.97;100.00
498;BME280;39559;48.630;9.162;2023-03-23T05:16:04;96743.50;;;9.77;100.00
498;BME280;39559;48.630;9.162;2023-03-23T05:18:30;96745.19;;;9.61;100.00
498;BME280;39559;48.630;9.162;2023-03-23T05:21:06;96738.09;;;9.47;100.00
498;BME280;39559;48.630;9.162;2023-03-23T05:23:32;96747.53;;;9.66;100.00
498;BME280;39559;48.630;9.162;2023-03-23T05:25:59;96738.09;;;9.65;100.00
498;BME280;39559;48.630;9.162;2023-03-23T05:30:04;96732.16;;;9.45;100.00
498;BME280;39559;48.630;9.162;2023-03-23T05:32:30;96741.47;;;9.32;100.00
498;BME280;39559;48.630;9.162;2023-03-23T05:34:59;96735.28;;;9.17;100.00
498;BME280;39559;48.630;9.162;2023-03-23T05:37:27;96732.28;;;9.07;100.00
498;BME280;39559;48.630;9.162;2023-03-23T05:39:59;96732.88;;;8.95;100.00
498;BME280;39559;48.630;9.162;2023-03-23T05:42:33;96733.56;;;8.98;100.00
498;BME280;39559;48.630;9.162;2023-03-23T05:45:00;96736.69;;;8.88;100.00
498;BME280;39559;48.630;9.162;2023-03-23T05:47:28;96733.63;;;8.79;100.00
498;BME280;39559;48.630;9.162;2023-03-23T05:49:54;96735.47;;;8.95;100.00
498;BME280;39559;48.630;9.162;2023-03-23T05:54:03;96742.28;;;8.97;100.00
498;BME280;39559;48.630;9.162;2023-03-23T05:56:44;96740.69;;;9.12;100.00
498;BME280;39559;48.630;9.162;2023-03-23T05:59:12;96749.03;;;9.00;100.00
498;BME280;39559;48.630;9.162;2023-03-23T06:01:38;96753.00;;;9.07;100.00
498;BME280;39559;48.630;9.162;2023-03-23T06:04:05;96750.91;;;9.15;100.00
498;BME280;39559;48.630;9.162;2023-03-23T06:06:31;96748.03;;;9.39;100.00
498;BME280;39559;48.630;9.162;2023-03-23T06:08:58;96753.97;;;9.41;100.00
498;BME280;39559;48.630;9.162;2023-03-23T06:11:31;96755.72;;;9.40;100.00
498;BME280;39559;48.630;9.162;2023-03-23T06:13:58;96766.16;;;9.56;100.00
498;BME280;39559;48.630;9.162;2023-03-23T06:18:03;96763.34;;;9.61;100.00
498;BME280;39559;48.630;9.162;2023-03-23T06:20:30;96770.88;;;9.66;100.00
498;BME280;39559;48.630;9.162;2023-03-23T06:22:58;96777.06;;;9.80;100.00
498;BME280;39559;48.630;9.162;2023-03-23T06:25:24;96776.91;;;10.17;100.00
498;BME280;39559;48.630;9.162;2023-03-23T06:27:50;96776.56;;;10.41;100.00
498;BME280;39559;48.630;9.162;2023-03-23T06:30:17;96780.75;;;10.59;100.00
498;BME280;39559;48.630;9.162;2023-03-23T06:32:44;96780.16;;;10.86;98.17
498;BME280;39559;48.630;9.162;2023-03-23T06:35:13;96777.63;;;11.00;96.25
498;BME280;39559;48.630;9.162;2023-03-23T06:37:39;96793.06;;;11.19;90.14
498;BME280;39559;48.630;9.162;2023-03-23T06:41:59;96802.03;;;11.44;89.41
498;BME280;39559;48.630;9.162;2023-03-23T06:44:25;96790.28;;;11.52;85.50
498;BME280;39559;48.630;9.162;2023-03-23T06:46:51;96792.81;;;11.54;86.43
498;BME280;39559;48.630;9.162;2023-03-23T06:49:17;96799.25;;;11.63;85.18
498;BME280;39559;48.630;9.162;2023-03-23T06:51:42;96797.22;;;11.68;83.76
498;BME280;39559;48.630;9.162;2023-03-23T06:54:08;96804.84;;;11.85;81.57
498;BME280;39559;48.630;9.162;2023-03-23T06:56:34;96797.88;;;11.86;85.32
498;BME280;39559;48.630;9.162;2023-03-23T06:58:59;96799.53;;;12.03;82.33
498;BME280;39559;48.630;9.162;2023-03-23T07:01:26;96807.47;;;12.30;79.97
498;BME280;39559;48.630;9.162;2023-03-23T07:05:57;96819.63;;;12.44;79.50
498;BME280;39559;48.630;9.162;2023-03-23T07:08:24;96806.44;;;12.47;78.42
498;BME280;39559;48.630;9.162;2023-03-23T07:10:52;96810.31;;;12.54;77.87
498;BME280;39559;48.630;9.162;2023-03-23T07:13:19;96813.84;;;12.53;77.44
498;BME280;39559;48.630;9.162;2023-03-23T07:15:45;96810.88;;;12.59;76.67
498;BME280;39559;48.630;9.162;2023-03-23T07:18:11;96811.97;;;12.70;74.82
498;BME280;39559;48.630;9.162;2023-03-23T07:20:37;96809.38;;;12.70;76.49
498;BME280;39559;48.630;9.162;2023-03-23T07:23:03;96812.94;;;12.68;78.42
498;BME280;39559;48.630;9.162;2023-03-23T07:25:32;96821.66;;;12.67;74.62
498;BME280;39559;48.630;9.162;2023-03-23T07:29:55;96827.59;;;12.70;75.03
498;BME280;39559;48.630;9.162;2023-03-23T07:32:23;96828.63;;;12.81;74.08
498;BME280;39559;48.630;9.162;2023-03-23T07:34:49;96827.91;;;12.79;73.75
498;BME280;39559;48.630;9.162;2023-03-23T07:37:15;96835.97;;;12.75;74.60
498;BME280;39559;48.630;9.162;2023-03-23T07:39:41;96843.53;;;12.79;74.25
498;BME280;39559;48.630;9.162;2023-03-23T07:42:08;96849.75;;;12.77;76.91
498;BME280;39559;48.630;9.162;2023-03-23T07:44:34;96852.66;;;12.72;75.79
498;BME280;39559;48.630;9.162;2023-03-23T07:46:59;96854.78;;;12.80;74.69
498;BME280;39559;48.630;9.162;2023-03-23T07:49:25;96850.31;;;12.82;74.64
498;BME280;39559;48.630;9.162;2023-03-23T07:53:53;96841.88;;;13.05;73.42
498;BME280;39559;48.630;9.162;2023-03-23T07:56:20;96846.78;;;13.24;74.63
498;BME280;39559;48.630;9.162;2023-03-23T07:58:46;96852.53;;;13.30;76.51
498;BME280;39559;48.630;9.162;2023-03-23T08:01:12;96853.38;;;13.30;75.45
498;BME280;39559;48.630;9.162;2023-03-23T08:03:39;96847.84;;;13.49;70.45
498;BME280;39559;48.630;9.162;2023-03-23T08:06:08;96847.16;;;13.60;72.63
498;BME280;39559;48.630;9.162;2023-03-23T08:08:35;96842.16;;;13.70;72.18
498;BME280;39559;48.630;9.162;2023-03-23T08:11:01;96843.94;;;13.69;69.81
498;BME280;39559;48.630;9.162;2023-03-23T08:13:27;96862.19;;;13.69;72.15
498;BME280;39559;48.630;9.162;2023-03-23T08:17:51;96872.28;;;13.88;73.37
498;BME280;39559;48.630;9.162;2023-03-23T08:20:18;96865.91;;;13.79;74.03
498;BME280;39559;48.630;9.162;2023-03-23T08:22:54;96865.22;;;14.03;72.98
498;BME280;39559;48.630;9.162;2023-03-23T08:25:22;96874.16;;;13.86;76.05
498;BME280;39559;48.630;9.162;2023-03-23T08:27:49;96867.19;;;13.99;75.54
498;BME280;39559;48.630;9.162;2023-03-23T08:30:18;96866.69;;;14.07;73.82
498;BME280;39559;48.630;9.162;2023-03-23T08:32:52;96874.41;;;14.09;73.95
498;BME280;39559;48.630;9.162;2023-03-23T08:35:18;96877.56;;;14.27;75.41
498;BME280;39559;48.630;9.162;2023-03-23T08:37:45;96886.34;;;14.38;73.87
498;BME280;39559;48.630;9.162;2023-03-23T08:41:52;96878.72;;;14.23;76.75
498;BME280;39559;48.630;9.162;2023-03-23T08:44:18;96885.16;;;14.04;76.43
498;BME280;39559;48.630;9.162;2023-03-23T08:46:44;96890.56;;;13.88;76.20
498;BME280;39559;48.630;9.162;2023-03-23T08:49:09;96893.69;;;13.93;76.31
498;BME280;39559;48.630;9.162;2023-03-23T08:51:35;96901.94;;;14.00;79.04
498;BME280;39559;48.630;9.162;2023-03-23T08:54:01;96901.41;;;13.95;79.35
498;BME280;39559;48.630;9.162;2023-03-23T08:56:27;96906.34;;;13.99;78.58
498;BME280;39559;48.630;9.162;2023-03-23T08:58:52;96904.88;;;13.95;80.98
498;BME280;39559;48.630;9.162;2023-03-23T09:01:18;96907.19;;;14.00;81.65
498;BME280;39559;48.630;9.162;2023-03-23T09:05:47;96901.78;;;14.16;78.54
498;BME280;39559;48.630;9.162;2023-03-23T09:08:13;96915.22;;;14.10;79.59
498;BME280;39559;48.630;9.162;2023-03-23T09:10:39;96915.66;;;14.16;79.83
498;BME280;39559;48.630;9.162;2023-03-23T09:13:05;96916.94;;;14.36;79.17
498;BME280;39559;48.630;9.162;2023-03-23T09:15:32;96912.00;;;14.59;79.92
498;BME280;39559;48.630;9.162;2023-03-23T09:17:58;96932.69;;;14.62;79.13
498;BME280;39559;48.630;9.162;2023-03-23T09:20:26;96922.69;;;14.29;83.37
498;BME280;39559;48.630;9.162;2023-03-23T09:22:54;96927.50;;;14.35;80.81
498;BME280;39559;48.630;9.162;2023-03-23T09:25:22;96918.41;;;14.40;80.27
498;BME280;39559;48.630;9.162;2023-03-23T09:29:42;96923.66;;;14.53;81.43
498;BME280;39559;48.630;9.162;2023-03-23T09:32:10;96926.25;;;14.53;79.31
498;BME280;39559;48.630;9.162;2023-03-23T09:34:35;96938.47;;;14.40;80.04
498;BME280;39559;48.630;9.162;2023-03-23T09:37:03;96935.13;;;14.38;80.44
498;BME280;39559;48.630;9.162;2023-03-23T09:39:30;96941.75;;;14.56;82.42
498;BME280;39559;48.630;9.162;2023-03-23T09:42:11;96955.72;;;14.30;79.29
498;BME280;39559;48.630;9.162;2023-03-23T09:45:06;96948.06;;;14.14;79.00
498;BME280;39559;48.630;9.162;2023-03-23T09:50:41;96959.94;;;14.05;81.31
498;BME280;39559;48.630;9.162;2023-03-23T09:53:47;96965.47;;;14.13;82.33
498;BME280;39559;48.630;9.162;2023-03-23T09:56:15;96954.94;;;14.15;81.16
498;BME280;39559;48.630;9.162;2023-03-23T09:58:55;96956.53;;;14.17;80.20
498;BME280;39559;48.630;9.162;2023-03-23T10:01:27;96953.31;;;14.27;81.96
498;BME280;39559;48.630;9.162;2023-03-23T10:04:47;96956.53;;;14.17;84.43
498;BME280;39559;48.630;9.162;2023-03-23T10:06:49;96945.13;;;14.58;80.66
498;BME280;39559;48.630;9.162;2023-03-23T10:09:18;96950.41;;;14.57;81.90
498;BME280;39559;48.630;9.162;2023-03-23T10:12:14;96944.09;;;14.74;81.65
498;BME280;39559;48.630;9.162;2023-03-23T10:14:52;96941.25;;;14.77;80.19
498;BME280;39559;48.630;9.162;2023-03-23T10:18:00;96951.28;;;14.57;79.04
498;BME280;39559;48.630;9.162;2023-03-23T10:23:42;96951.06;;;14.73;79.19
498;BME280;39559;48.630;9.162;2023-03-23T10:29:14;96940.94;;;14.94;78.29
498;BME280;39559;48.630;9.162;2023-03-23T10:32:03;96952.22;;;15.08;78.21
498;BME280;39559;48.630;9.162;2023-03-23T10:34:44;96949.19;;;15.14;77.40
498;BME280;39559;48.630;9.162;2023-03-23T10:37:25;96955.34;;;15.13;75.65
498;BME280;39559;48.630;9.162;2023-03-23T10:41:37;96954.13;;;14.80;77.36
498;BME280;39559;48.630;9.162;2023-03-23T10:44:20;96954.34;;;15.03;76.08
498;BME280;39559;48.630;9.162;2023-03-23T10:47:03;96971.16;;;14.86;76.90
498;BME280;39559;48.630;9.162;2023-03-23T10:49:39;96959.34;;;14.80;76.76
498;BME280;39559;48.630;9.162;2023-03-23T10:52:30;96957.34;;;14.96;77.40
498;BME280;39559;48.630;9.162;2023-03-23T10:55:05;96963.69;;;15.31;79.36
498;BME280;39559;48.630;9.162;2023-03-23T10:57:34;96960.13;;;15.45;78.38
498;BME280;39559;48.630;9.162;2023-03-23T11:00:22;96960.78;;;15.35;78.94
498;BME280;39559;48.630;9.162;2023-03-23T11:05:53;96968.41;;;15.26;76.37
498;BME280;39559;48.630;9.162;2023-03-23T11:08:52;96966.94;;;15.22;74.92
498;BME280;39559;48.630;9.162;2023-03-23T11:11:25;96961.63;;;15.23;73.24
498;BME280;39559;48.630;9.162;2023-03-23T11:13:58;96966.09;;;15.34;74.19
498;BME280;39559;48.630;9.162;2023-03-23T11:16:28;96969.88;;;15.17;76.55
498;BME280;39559;48.630;9.162;2023-03-23T11:18:54;96965.75;;;15.39;76.67
498;BME280;39559;48.630;9.162;2023-03-23T11:21:22;96963.34;;;15.48;76.42
498;BME280;39559;48.630;9.162;2023-03-23T11:23:51;96962.84;;;15.43;74.76
498;BME280;39559;48.630;9.162;2023-03-23T11:26:31;96959.72;;;15.62;75.52
498;BME280;39559;48.630;9.162;2023-03-23T11:29:35;96953.13;;;15.69;76.26
498;BME280;39559;48.630;9.162;2023-03-23T11:32:04;96956.63;;;15.44;73.72
498;BME280;39559;48.630;9.162;2023-03-23T11:34:46;96940.50;;;15.26;77.37
498;BME280;39559;48.630;9.162;2023-03-23T11:37:18;96945.34;;;15.44;74.63
498;BME280;39559;48.630;9.162;2023-03-23T11:42:19;96936.22;;;15.49;75.13
498;BME280;39559;48.630;9.162;2023-03-23T11:44:46;96942.06;;;15.53;77.04
498;BME280;39559;48.630;9.162;2023-03-23T11:53:54;96927.22;;;16.26;72.77
498;BME280;39559;48.630;9.162;2023-03-23T11:56:31;96927.16;;;16.15;72.24
498;BME280;39559;48.630;9.162;2023-03-23T11:58:59;96931.97;;;15.97;73.00
498;BME280;39559;48.630;9.162;2023-03-23T12:10:02;96910.47;;;15.56;72.32
498;BME280;39559;48.630;9.162;2023-03-23T12:20:37;96912.34;;;16.02;71.68
498;BME280;39559;48.630;9.162;2023-03-23T12:29:17;96913.75;;;16.19;68.42
498;BME280;39559;48.630;9.162;2023-03-23T12:32:34;96913.06;;;16.04;67.15
498;BME280;39559;48.630;9.162;2023-03-23T12:41:27;96916.31;;;15.60;65.44
498;BME280;39559;48.630;9.162;2023-03-23T12:44:02;96915.91;;;15.53;67.50
498;BME280;39559;48.630;9.162;2023-03-23T12:54:59;96911.06;;;15.60;68.80
498;BME280;39559;48.630;9.162;2023-03-23T12:57:41;96917.00;;;15.99;65.53
498;BME280;39559;48.630;9.162;2023-03-23T13:00:28;96901.44;;;15.84;64.91
498;BME280;39559;48.630;9.162;2023-03-23T13:05:33;96900.41;;;15.87;68.25
498;BME280;39559;48.630;9.162;2023-03-23T13:08:21;96896.47;;;15.81;65.70
498;BME280;39559;48.630;9.162;2023-03-23T13:10:51;96884.81;;;15.85;67.65
498;BME280;39559;48.630;9.162;2023-03-23T13:13:19;96889.94;;;15.87;67.62
498;BME280;39559;48.630;9.162;2023-03-23T13:15:57;96882.78;;;15.65;65.81
498;BME280;39559;48.630;9.162;2023-03-23T13:18:40;96877.69;;;15.99;70.18
498;BME280;39559;48.630;9.162;2023-03-23T13:24:12;96865.28;;;16.25;65.93
498;BME280;39559;48.630;9.162;2023-03-23T13:29:15;96859.75;;;16.05;67.19
498;BME280;39559;48.630;9.162;2023-03-23T13:31:45;96845.63;;;15.84;67.43
498;BME280;39559;48.630;9.162;2023-03-23T13:34:30;96853.31;;;15.98;68.41
498;BME280;39559;48.630;9.162;2023-03-23T13:36:58;96862.22;;;15.71;65.25
498;BME280;39559;48.630;9.162;2023-03-23T13:42:20;96842.06;;;15.61;65.00
498;BME280;39559;48.630;9.162;2023-03-23T13:45:06;96844.63;;;15.73;66.22
498;BME280;39559;48.630;9.162;2023-03-23T13:47:41;96841.13;;;15.86;64.71
498;BME280;39559;48.630;9.162;2023-03-23T13:53:22;96836.69;;;16.10;62.83
498;BME280;39559;48.630;9.162;2023-03-23T13:56:05;96835.81;;;15.99;62.09
498;BME280;39559;48.630;9.162;2023-03-23T13:58:31;96841.91;;;15.99;62.97
498;BME280;39559;48.630;9.162;2023-03-23T14:03:42;96841.19;;;15.97;61.93
498;BME280;39559;48.630;9.162;2023-03-23T14:06:20;96837.81;;;15.95;62.62
498;BME280;39559;48.630;9.162;2023-03-23T14:08:51;96836.69;;;16.10;62.37
498;BME280;39559;48.630;9.162;2023-03-23T14:11:27;96830.13;;;16.16;64.17
498;BME280;39559;48.630;9.162;2023-03-23T14:17:13;96818.59;;;16.19;60.85
498;BME280;39559;48.630;9.162;2023-03-23T14:19:41;96827.03;;;16.11;60.39
498;BME280;39559;48.630;9.162;2023-03-23T14:22:23;96810.50;;;16.22;60.31
498;BME280;39559;48.630;9.162;2023-03-23T14:24:49;96814.41;;;16.05;60.38
498;BME280;39559;48.630;9.162;2023-03-23T14:27:19;96804.13;;;15.90;61.10
498;BME280;39559;48.630;9.162;2023-03-23T14:29:45;96810.19;;;15.91;61.43
498;BME280;39559;48.630;9.162;2023-03-23T14:32:20;96805.78;;;15.91;60.66
498;BME280;39559;48.630;9.162;2023-03-23T14:34:52;96802.56;;;15.88;61.90
498;BME280;39559;48.630;9.162;2023-03-23T14:37:18;96808.06;;;15.85;60.12
498;BME280;39559;48.630;9.162;2023-03-23T14:41:04;96807.34;;;15.83;61.53
498;BME280;39559;48.630;9.162;2023-03-23T14:43:32;96806.94;;;15.76;61.82
498;BME280;39559;48.630;9.162;2023-03-23T14:46:01;96811.97;;;15.79;62.00
498;BME280;39559;48.630;9.162;2023-03-23T14:48:28;96812.22;;;15.87;61.19
498;BME280;39559;48.630;9.162;2023-03-23T14:50:58;96816.72;;;15.85;60.20
498;BME280;39559;48.630;9.162;2023-03-23T14:53:38;96821.25;;;15.83;61.06
498;BME280;39559;48.630;9.162;2023-03-23T14:56:19;96834.66;;;15.79;61.08
498;BME280;39559;48.630;9.162;2023-03-23T14:58:50;96817.31;;;15.78;60.24
498;BME280;39559;48.630;9.162;2023-03-23T15:01:28;96820.53;;;15.81;60.42
498;BME280;39559;48.630;9.162;2023-03-23T15:05:29;96817.56;;;15.86;59.01
498;BME280;39559;48.630;9.162;2023-03-23T15:08:01;96825.06;;;15.79;60.42
498;BME280;39559;48.630;9.162;2023-03-23T15:10:29;96815.09;;;15.71;59.67
498;BME280;39559;48.630;9.162;2023-03-23T15:12:55;96807.59;;;15.67;60.18
498;BME280;39559;48.630;9.162;2023-03-23T15:15:30;96810.38;;;15.77;59.98
498;BME280;39559;48.630;9.162;2023-03-23T15:17:57;96818.06;;;15.67;61.07
498;BME280;39559;48.630;9.162;2023-03-23T15:22:52;96811.53;;;15.72;61.48
498;BME280;39559;48.630;9.162;2023-03-23T15:25:23;96819.72;;;15.68;61.58
498;BME280;39559;48.630;9.162;2023-03-23T15:29:12;96825.09;;;15.66;59.75
498;BME280;39559;48.630;9.162;2023-03-23T15:34:13;96826.00;;;15.54;61.60
498;BME280;39559;48.630;9.162;2023-03-23T15:36:40;96839.28;;;15.51;64.55
498;BME280;39559;48.630;9.162;2023-03-23T15:39:11;96836.72;;;15.38;60.81
498;BME280;39559;48.630;9.162;2023-03-23T15:41:49;96832.28;;;15.27;62.47
498;BME280;39559;48.630;9.162;2023-03-23T15:46:50;96831.50;;;15.14;61.00
498;BME280;39559;48.630;9.162;2023-03-23T15:49:17;96843.59;;;15.15;60.94
498;BME280;39559;48.630;9.162;2023-03-23T15:52:52;96848.66;;;15.05;62.01
498;BME280;39559;48.630;9.162;2023-03-23T15:57:50;96838.66;;;14.99;64.01
498;BME280;39559;48.630;9.162;2023-03-23T16:00:18;96845.53;;;15.00;62.36
498;BME280;39559;48.630;9.162;2023-03-23T16:02:51;96840.97;;;14.91;63.10
498;BME280;39559;48.630;9.162;2023-03-23T16:05:18;96836.56;;;14.91;63.38
498;BME280;39559;48.630;9.162;2023-03-23T16:07:44;96837.00;;;14.85;62.74
498;BME280;39559;48.630;9.162;2023-03-23T16:10:21;96835.31;;;14.84;63.19
498;BME280;39559;48.630;9.162;2023-03-23T16:12:47;96828.97;;;14.88;63.07
498;BME280;39559;48.630;9.162;2023-03-23T16:16:49;96831.78;;;14.85;63.01
498;BME280;39559;48.630;9.162;2023-03-23T16:19:17;96827.00;;;14.79;63.57